Aérodrome :
LOGIN :

S'inscrire | Disclaimer

   EN    FR    IT 

 










Légende :    VFR   VFR Marginal   IFR   IFR Intensif   IFR Très Intensif
Visi : 
Plafond : 
>= 8 km
>= 3000ft
5 à 8 km
1000 à 3000 ft
1500m à 5 km
500 à 1000 ft
800 à 1500m
200 à 500 ft
< 800m
< 200 ft
Symboles :   Orages  Brouillard  Fortes neiges  Fortes précipitations  Vent > 20 kt
SIGMETs :   Divers  Orages  Givrage  Turbulence  Onde Orograph.  Cendres Volcan.







- Altitude de l'aérodrome : 390 ft
- Code IATA : NQY
- Voir les cartes d'approche


EGHQ - Newquay

DERNIER METAR :
  • 130920Z 12024G34KT 9999 BKN016 06/04 Q1006

METARs EXPIRÉS :
  • 130850Z 13024KT 9999 -RA BKN015 06/05 Q1006
  • 130820Z 13026KT 9999 -RA OVC016 06/05 Q1005
  • 130750Z 12024G34KT 9999 -DZ OVC015 06/05 Q1005
  • 130720Z 12024KT 8000 -DZ OVC013 06/05 Q1005

TAF TAF EGHQ
Valide du 13 à 09h jusqu'au 13 à 18h UTC


130804Z 1309/1318 12022KT 9999 BKN015
TEMPO 1309/1315 12025G35KT BKN009
PROB30
TEMPO 1309/1312 7000 -RA
Pas de NOTAMs connus pour ce terrain.



MET'MAP, la Météo Aéronautique d'un coup d'oeil ! - Copyright ORBIFLY Décembre 2007 - Disclaimer

ORBIFLY MET'MAP TEAM :

Programmation & Développement : Alexandra Zaïnal
Conception & Développement : Baudouin d'Aumeries
Co-Programmation & Développement : Marc-Olivier Méhu
Soutien technique & logistique : Manuel Goepfert

Contact : metmap@orbifly.com




SOURCES & CREDITS :

   NOAA